Time;durP1;ratioP1;P1;durP2;ratioP2;P2;SDS_P1;SDS_P2;PMS_P1;PMS_P2;Temp;Humidity;BMP_temperature;BMP_pressure;BME280_temperature;BME280_humidity;BME280_pressure;Samples;Min_cycle;Max_cycle;Signal;HPM_P1;HPM_P2
2024/01/25 00:04:03;;;;;;;10.20;2.00;;;;;;;5.38;88.07;98199.10;437515;1251;97955;-39
2024/01/25 00:14:10;;;;;;;8.70;1.80;;;;;;;5.31;88.39;98181.50;437503;1250;109608;-38
2024/01/25 00:24:17;;;;;;;12.50;2.40;;;;;;;5.28;88.85;98171.48;437593;1250;107045;-39
2024/01/25 00:54:37;;;;;;;11.40;2.10;;;;;;;5.02;89.92;98216.17;437187;1250;404271;-38
2024/01/25 01:14:54;;;;;;;12.70;2.30;;;;;;;4.95;90.29;98229.87;437503;1248;107634;-38
2024/01/25 01:25:00;;;;;;;7.90;2.00;;;;;;;4.90;90.22;98234.06;437446;1260;99350;-39
2024/01/25 01:35:08;;;;;;;4.50;1.50;;;;;;;4.95;90.64;98242.37;437327;1250;107173;-40
2024/01/25 01:45:14;;;;;;;9.40;1.70;;;;;;;4.79;90.92;98232.43;437994;1259;99215;-39
2024/01/25 01:55:23;;;;;;;10.70;1.80;;;;;;;4.74;90.70;98222.89;437283;1250;110954;-41
2024/01/25 02:05:29;;;;;;;13.90;2.30;;;;;;;4.74;91.04;98216.71;437587;1250;107029;-40
2024/01/25 02:15:35;;;;;;;20.00;6.00;;;;;;;4.71;91.19;98224.28;437608;1248;99230;-40
2024/01/25 02:25:40;;;;;;;17.50;9.10;;;;;;;4.68;91.60;98261.88;437465;1260;107803;-43
2024/01/25 02:35:46;;;;;;;7.00;2.50;;;;;;;4.53;92.11;98256.11;437306;1260;98913;-40
2024/01/25 02:55:55;;;;;;;14.90;1.70;;;;;;;4.63;92.94;98236.14;437807;1253;108081;-39
2024/01/25 03:06:01;;;;;;;13.90;2.70;;;;;;;4.64;92.90;98221.66;436313;1261;99230;-39
2024/01/25 03:16:09;;;;;;;14.60;2.40;;;;;;;4.63;92.81;98223.60;436429;1253;107834;-40
2024/01/25 03:26:16;;;;;;;12.80;2.70;;;;;;;4.67;92.52;98229.52;436446;1252;99340;-38
2024/01/25 03:36:23;;;;;;;8.80;2.20;;;;;;;4.69;92.31;98226.34;436378;1247;111319;-43
2024/01/25 03:46:30;;;;;;;9.20;2.40;;;;;;;4.60;92.09;98219.49;436313;1253;109062;-39
2024/01/25 03:56:37;;;;;;;10.40;3.60;;;;;;;4.56;91.78;98210.48;436337;1253;99243;-39
2024/01/25 04:06:46;;;;;;;13.30;2.50;;;;;;;4.63;91.55;98214.05;436344;1253;107341;-39
2024/01/25 04:16:53;;;;;;;22.30;3.60;;;;;;;4.68;91.21;98207.92;436283;1253;99237;-38
2024/01/25 04:27:00;;;;;;;11.20;2.90;;;;;;;4.78;90.60;98207.85;436897;1261;110696;-39
2024/01/25 04:37:08;;;;;;;12.40;2.50;;;;;;;4.81;89.99;98200.71;436413;1254;107636;-39
2024/01/25 04:47:15;;;;;;;14.80;2.80;;;;;;;4.81;89.47;98191.89;436329;1253;99219;-37
2024/01/25 04:57:22;;;;;;;11.60;2.90;;;;;;;4.77;89.28;98185.89;436435;1253;108606;-39
2024/01/25 05:07:28;;;;;;;11.90;2.30;;;;;;;4.85;88.43;98193.61;436298;1252;97982;-39
2024/01/25 05:27:40;;;;;;;13.00;2.70;;;;;;;4.91;87.60;98228.63;436371;1253;108059;-39
2024/01/25 05:37:48;;;;;;;10.00;3.10;;;;;;;4.87;87.73;98233.02;436301;1253;98818;-37
2024/01/25 05:47:54;;;;;;;20.40;4.50;;;;;;;4.79;88.24;98229.49;436505;1254;108468;-39
2024/01/25 05:58:02;;;;;;;17.20;3.50;;;;;;;4.70;88.46;98228.31;435810;1253;99277;-39
2024/01/25 06:08:09;;;;;;;14.20;2.70;;;;;;;4.76;88.49;98230.83;435460;1261;111217;-37
2024/01/25 06:18:15;;;;;;;13.00;2.60;;;;;;;4.71;89.03;98230.61;435430;1253;108181;-38
2024/01/25 06:28:23;;;;;;;17.30;3.80;;;;;;;4.57;89.60;98224.85;435391;1251;98824;-38
2024/01/25 06:38:30;;;;;;;16.70;3.30;;;;;;;4.53;90.20;98233.80;435432;1251;106167;-39
2024/01/25 06:48:37;;;;;;;19.90;3.90;;;;;;;4.55;90.51;98229.20;435510;1263;99237;-38
2024/01/25 06:58:45;;;;;;;12.80;2.30;;;;;;;4.63;90.56;98234.71;436934;1253;111277;-38
2024/01/25 07:29:03;;;;;;;16.30;3.70;;;;;;;4.90;90.00;98278.67;436314;1254;108061;-38
2024/01/25 07:49:18;;;;;;;13.50;3.60;;;;;;;4.87;89.98;98285.50;436500;1248;110552;-45
2024/01/25 07:59:25;;;;;;;16.00;4.60;;;;;;;4.86;90.27;98293.77;436373;1253;107275;-39
2024/01/25 08:09:32;;;;;;;14.00;2.60;;;;;;;4.88;90.18;98298.00;436452;1261;99243;-39
2024/01/25 08:19:39;;;;;;;12.40;3.10;;;;;;;4.85;90.27;98300.33;436354;1254;108049;-39
2024/01/25 08:29:47;;;;;;;12.30;3.30;;;;;;;4.80;90.55;98302.95;436346;1254;98816;-39
2024/01/25 08:50:00;;;;;;;18.10;4.50;;;;;;;4.75;91.09;98306.14;436218;1247;108147;-39
2024/01/25 09:00:10;;;;;;;8.40;3.60;;;;;;;4.89;90.86;98300.65;436382;1247;99215;-39
2024/01/25 09:10:16;;;;;;;19.70;6.00;;;;;;;5.06;90.03;98316.70;436393;1253;108054;-39
2024/01/25 09:20:22;;;;;;;16.10;3.60;;;;;;;5.18;88.57;98331.09;436398;1261;99207;-39
2024/01/25 09:30:28;;;;;;;21.90;4.30;;;;;;;5.24;87.26;98352.73;436303;1252;110742;-39
2024/01/25 09:50:44;;;;;;;17.80;3.90;;;;;;;5.25;85.97;98380.06;436146;1253;101434;-40
2024/01/25 10:00:52;;;;;;;19.20;4.50;;;;;;;5.16;86.08;98403.88;436333;1254;107498;-38
2024/01/25 10:10:59;;;;;;;12.00;4.60;;;;;;;5.15;86.37;98402.90;436355;1253;97980;-40
2024/01/25 10:21:06;;;;;;;12.40;2.70;;;;;;;4.98;87.14;98402.20;436166;1254;110906;-40
2024/01/25 10:31:12;;;;;;;20.90;5.30;;;;;;;5.00;87.48;98404.47;436445;1252;106988;-39
2024/01/25 10:41:24;;;;;;;11.60;4.40;;;;;;;5.20;86.85;98411.55;436415;1252;97978;-40
2024/01/25 11:11:49;;;;;;;14.40;3.70;;;;;;;5.55;85.16;98422.85;436405;1248;110624;-39
2024/01/25 11:21:57;;;;;;;20.20;4.70;;;;;;;5.49;85.61;98427.34;436440;1254;107507;-39
2024/01/25 11:32:06;;;;;;;14.70;3.30;;;;;;;5.49;85.51;98419.59;436250;1253;98824;-40
2024/01/25 11:42:11;;;;;;;;;;;;;;;5.58;85.22;98424.17;436457;1250;107700;-39
2024/01/25 11:52:18;;;;;;;9.60;2.90;;;;;;;5.56;84.78;98436.52;436433;1253;99237;-39
2024/01/25 12:12:32;;;;;;;21.30;3.60;;;;;;;5.82;82.76;98451.41;436582;1253;106846;-39
2024/01/25 12:22:40;;;;;;;10.90;3.20;;;;;;;5.88;82.97;98460.25;436472;1247;99211;-39
2024/01/25 12:42:55;;;;;;;10.10;2.60;;;;;;;5.96;82.14;98471.66;436348;1253;98829;-38
2024/01/25 13:03:10;;;;;;;15.40;4.70;;;;;;;5.94;81.04;98489.39;436274;1248;108402;-39
2024/01/25 13:13:18;;;;;;;29.10;3.50;;;;;;;5.85;81.54;98500.65;436370;1248;99226;-39
2024/01/25 13:23:25;;;;;;;9.10;2.50;;;;;;;5.75;81.82;98510.80;436425;1249;108080;-39
2024/01/25 13:33:32;;;;;;;13.40;3.30;;;;;;;5.54;82.84;98531.27;436226;1254;98512;-38
2024/01/25 13:53:47;;;;;;;18.50;3.50;;;;;;;5.14;85.78;98560.57;436262;1252;107663;-39
2024/01/25 14:13:59;;;;;;;21.50;6.50;;;;;;;4.72;87.94;98587.35;436603;1251;108489;-38
2024/01/25 14:24:05;;;;;;;21.30;5.90;;;;;;;4.62;88.41;98596.59;436234;1253;99212;-40
2024/01/25 14:44:17;;;;;;;18.10;4.70;;;;;;;4.44;90.18;98598.88;436275;1253;108921;-38
2024/01/25 14:54:24;;;;;;;26.20;6.50;;;;;;;4.40;91.00;98607.56;436535;1252;99234;-39
2024/01/25 15:04:31;;;;;;;14.30;4.50;;;;;;;4.34;91.64;98614.61;436333;1252;108665;-39
2024/01/25 15:14:39;;;;;;;21.10;3.90;;;;;;;4.29;92.21;98631.32;436358;1252;99320;-39
2024/01/25 15:24:45;;;;;;;15.90;5.40;;;;;;;4.20;92.94;98648.14;436313;1248;110983;-39
2024/01/25 15:34:52;;;;;;;17.80;4.00;;;;;;;4.11;93.53;98665.30;436339;1253;107211;-39
2024/01/25 15:45:00;;;;;;;20.00;4.00;;;;;;;4.03;94.07;98668.01;436385;1253;99231;-39
2024/01/25 15:55:08;;;;;;;17.80;6.10;;;;;;;3.95;94.51;98678.95;436388;1249;108692;-38
2024/01/25 16:05:15;;;;;;;13.00;4.40;;;;;;;3.92;94.76;98686.48;436457;1248;98001;-39
2024/01/25 16:15:24;;;;;;;25.70;8.80;;;;;;;3.90;95.08;98703.82;436329;1253;111110;-38
2024/01/25 16:25:32;;;;;;;16.90;5.50;;;;;;;3.86;95.77;98717.34;436356;1247;107364;-38
2024/01/25 16:35:39;;;;;;;20.30;4.00;;;;;;;3.82;96.06;98722.02;436411;1253;99078;-40
2024/01/25 16:45:46;;;;;;;12.70;4.30;;;;;;;3.78;96.85;98720.91;436320;1251;108153;-38
2024/01/25 16:55:54;;;;;;;18.50;4.30;;;;;;;3.74;97.37;98730.17;436396;1247;99220;-39
2024/01/25 17:06:01;;;;;;;17.70;6.30;;;;;;;3.73;97.54;98738.59;436253;1248;112286;-38
2024/01/25 17:16:06;;;;;;;19.70;6.10;;;;;;;3.74;97.93;98741.48;436416;1252;108305;-38
2024/01/25 17:26:13;;;;;;;21.00;6.60;;;;;;;3.78;97.93;98748.27;436430;1247;99288;-38
2024/01/25 17:36:24;;;;;;;27.30;6.00;;;;;;;3.86;97.83;98744.70;436380;1252;108317;-39
2024/01/25 17:46:31;;;;;;;20.60;9.60;;;;;;;3.94;97.67;98761.93;436397;1248;99228;-39
2024/01/25 17:56:38;;;;;;;15.10;4.60;;;;;;;3.96;97.38;98773.38;436390;1264;111303;-39
2024/01/25 18:06:45;;;;;;;21.80;5.30;;;;;;;3.92;97.31;98775.39;436417;1250;106523;-38
2024/01/25 18:16:52;;;;;;;19.80;5.40;;;;;;;3.89;97.29;98784.34;436293;1251;99285;-39
2024/01/25 18:26:59;;;;;;;40.90;13.00;;;;;;;3.88;97.30;98809.40;436209;1253;107604;-39
2024/01/25 18:37:04;;;;;;;25.90;8.40;;;;;;;3.83;97.42;98824.83;436574;1248;98826;-41
2024/01/25 18:47:12;;;;;;;20.80;6.40;;;;;;;3.79;97.43;98838.01;436367;1247;113583;-40
2024/01/25 18:57:18;;;;;;;33.10;12.80;;;;;;;3.75;97.82;98846.47;436331;1247;108676;-39
2024/01/25 19:07:25;;;;;;;30.10;7.70;;;;;;;3.78;98.07;98844.23;436524;1248;99243;-39
2024/01/25 19:17:32;;;;;;;23.50;7.90;;;;;;;3.85;97.82;98837.77;436312;1250;106854;-39
2024/01/25 19:27:38;;;;;;;20.20;7.80;;;;;;;3.90;97.71;98844.35;436254;1252;98801;-39
2024/01/25 20:08:07;;;;;;;22.10;6.00;;;;;;;4.00;96.24;98888.86;436272;1266;107292;-43
2024/01/25 20:18:14;;;;;;;19.20;6.80;;;;;;;3.98;95.94;98907.20;436342;1254;99222;-39
2024/01/25 20:38:28;;;;;;;19.40;7.10;;;;;;;3.87;95.74;98903.44;436430;1253;108853;-38
2024/01/25 20:58:43;;;;;;;15.60;5.90;;;;;;;3.91;95.20;98916.73;436171;1247;107306;-38
2024/01/25 21:08:50;;;;;;;18.40;5.00;;;;;;;3.82;94.85;98922.17;436450;1253;99239;-39
2024/01/25 21:18:56;;;;;;;17.10;4.70;;;;;;;3.80;94.77;98935.08;436325;1253;111706;-38
2024/01/25 21:29:02;;;;;;;13.00;3.80;;;;;;;3.73;94.88;98948.52;436304;1248;108089;-40
2024/01/25 21:39:09;;;;;;;15.30;4.70;;;;;;;3.69;94.94;98963.28;436370;1248;99350;-38
2024/01/25 21:49:16;;;;;;;13.70;4.70;;;;;;;3.62;95.06;98982.58;436419;1247;108073;-38
2024/01/25 21:59:24;;;;;;;16.20;5.90;;;;;;;3.58;94.99;99004.34;436226;1253;99333;-39
2024/01/25 22:09:31;;;;;;;10.10;4.80;;;;;;;3.52;94.85;99016.80;436244;1252;110760;-39
2024/01/25 22:19:38;;;;;;;12.70;4.30;;;;;;;3.17;94.51;99028.17;436461;1253;108627;-40
2024/01/25 22:29:45;;;;;;;11.40;6.30;;;;;;;2.88;94.63;99039.70;436362;1247;97919;-37
2024/01/25 22:39:51;;;;;;;7.60;4.20;;;;;;;2.62;94.92;99055.23;436503;1253;109579;-39
2024/01/25 22:49:58;;;;;;;13.00;5.50;;;;;;;2.56;95.01;99060.00;436351;1254;99283;-40
2024/01/25 23:00:10;;;;;;;6.00;2.80;;;;;;;2.50;95.28;99070.95;436257;1253;112492;-39
2024/01/25 23:20:25;;;;;;;9.60;3.80;;;;;;;2.29;95.85;99091.48;436466;1253;98807;-39
2024/01/25 23:30:32;;;;;;;7.50;3.50;;;;;;;2.35;96.18;99098.81;436246;1253;109391;-38
2024/01/25 23:40:38;;;;;;;6.20;3.00;;;;;;;2.42;96.65;99102.96;436323;1253;98768;-40
2024/01/25 23:50:46;;;;;;;6.10;2.30;;;;;;;2.45;97.35;99108.72;436320;1253;110554;-39
